sensor_id;sensor_type;location;lat;lon;timestamp;P1;durP1;ratioP1;P2;durP2;ratioP2
9948;SDS011;5013;51.840;8.276;2023-09-19T00:01:41;6.97;;;3.37;;
9948;SDS011;5013;51.840;8.276;2023-09-19T00:04:10;4.90;;;2.50;;
9948;SDS011;5013;51.840;8.276;2023-09-19T00:06:37;3.20;;;2.80;;
9948;SDS011;5013;51.840;8.276;2023-09-19T00:09:06;5.43;;;3.07;;
9948;SDS011;5013;51.840;8.276;2023-09-19T00:11:35;4.63;;;3.20;;
9948;SDS011;5013;51.840;8.276;2023-09-19T00:14:02;4.63;;;3.00;;
9948;SDS011;5013;51.840;8.276;2023-09-19T00:16:29;5.63;;;2.90;;
9948;SDS011;5013;51.840;8.276;2023-09-19T00:18:55;6.73;;;3.30;;
9948;SDS011;5013;51.840;8.276;2023-09-19T00:21:20;4.87;;;3.00;;
9948;SDS011;5013;51.840;8.276;2023-09-19T00:23:47;4.70;;;3.50;;
9948;SDS011;5013;51.840;8.276;2023-09-19T00:26:12;7.00;;;3.67;;
9948;SDS011;5013;51.840;8.276;2023-09-19T00:28:38;4.90;;;3.43;;
9948;SDS011;5013;51.840;8.276;2023-09-19T00:31:04;6.57;;;3.27;;
9948;SDS011;5013;51.840;8.276;2023-09-19T00:33:33;7.07;;;3.70;;
9948;SDS011;5013;51.840;8.276;2023-09-19T00:35:59;9.57;;;3.80;;
9948;SDS011;5013;51.840;8.276;2023-09-19T00:38:26;8.73;;;4.10;;
9948;SDS011;5013;51.840;8.276;2023-09-19T00:40:52;10.33;;;3.80;;
9948;SDS011;5013;51.840;8.276;2023-09-19T00:43:19;4.93;;;3.27;;
9948;SDS011;5013;51.840;8.276;2023-09-19T00:45:46;5.93;;;3.93;;
9948;SDS011;5013;51.840;8.276;2023-09-19T00:48:13;8.27;;;3.80;;
9948;SDS011;5013;51.840;8.276;2023-09-19T00:50:41;8.27;;;4.23;;
9948;SDS011;5013;51.840;8.276;2023-09-19T00:53:08;12.53;;;3.67;;
9948;SDS011;5013;51.840;8.276;2023-09-19T00:55:38;6.93;;;3.43;;
9948;SDS011;5013;51.840;8.276;2023-09-19T00:58:05;9.33;;;4.00;;
9948;SDS011;5013;51.840;8.276;2023-09-19T01:00:32;4.77;;;3.60;;
9948;SDS011;5013;51.840;8.276;2023-09-19T01:03:00;9.73;;;4.30;;
9948;SDS011;5013;51.840;8.276;2023-09-19T01:05:28;5.30;;;4.70;;
9948;SDS011;5013;51.840;8.276;2023-09-19T01:07:57;6.43;;;4.97;;
9948;SDS011;5013;51.840;8.276;2023-09-19T01:10:23;8.60;;;5.03;;
9948;SDS011;5013;51.840;8.276;2023-09-19T01:21:10;8.57;;;4.43;;
9948;SDS011;5013;51.840;8.276;2023-09-19T01:27:01;11.47;;;4.10;;
9948;SDS011;5013;51.840;8.276;2023-09-19T01:29:48;8.03;;;3.87;;
9948;SDS011;5013;51.840;8.276;2023-09-19T01:32:18;12.33;;;4.10;;
9948;SDS011;5013;51.840;8.276;2023-09-19T01:34:47;9.77;;;4.10;;
9948;SDS011;5013;51.840;8.276;2023-09-19T01:37:19;9.70;;;3.60;;
9948;SDS011;5013;51.840;8.276;2023-09-19T01:39:53;8.70;;;3.87;;
9948;SDS011;5013;51.840;8.276;2023-09-19T01:42:35;10.90;;;3.40;;
9948;SDS011;5013;51.840;8.276;2023-09-19T01:48:35;16.17;;;3.80;;
9948;SDS011;5013;51.840;8.276;2023-09-19T01:51:13;13.17;;;3.17;;
9948;SDS011;5013;51.840;8.276;2023-09-19T01:53:53;12.63;;;3.17;;
9948;SDS011;5013;51.840;8.276;2023-09-19T01:56:32;14.93;;;3.43;;
9948;SDS011;5013;51.840;8.276;2023-09-19T01:59:07;12.40;;;3.27;;
9948;SDS011;5013;51.840;8.276;2023-09-19T02:01:38;6.87;;;2.93;;
9948;SDS011;5013;51.840;8.276;2023-09-19T02:04:05;11.60;;;3.37;;
9948;SDS011;5013;51.840;8.276;2023-09-19T02:06:32;8.80;;;3.33;;
9948;SDS011;5013;51.840;8.276;2023-09-19T02:08:58;10.97;;;3.50;;
9948;SDS011;5013;51.840;8.276;2023-09-19T02:11:24;15.67;;;3.43;;
9948;SDS011;5013;51.840;8.276;2023-09-19T02:13:50;8.77;;;3.20;;
9948;SDS011;5013;51.840;8.276;2023-09-19T02:16:19;13.53;;;4.00;;
9948;SDS011;5013;51.840;8.276;2023-09-19T02:18:45;8.37;;;3.33;;
9948;SDS011;5013;51.840;8.276;2023-09-19T02:21:17;15.30;;;4.27;;
9948;SDS011;5013;51.840;8.276;2023-09-19T02:23:46;11.83;;;4.07;;
9948;SDS011;5013;51.840;8.276;2023-09-19T02:26:12;11.60;;;3.87;;
9948;SDS011;5013;51.840;8.276;2023-09-19T02:28:38;9.50;;;4.10;;
9948;SDS011;5013;51.840;8.276;2023-09-19T02:31:04;14.27;;;4.87;;
9948;SDS011;5013;51.840;8.276;2023-09-19T02:33:33;10.70;;;3.80;;
9948;SDS011;5013;51.840;8.276;2023-09-19T02:35:58;8.93;;;4.10;;
9948;SDS011;5013;51.840;8.276;2023-09-19T02:38:24;12.63;;;4.23;;
9948;SDS011;5013;51.840;8.276;2023-09-19T02:40:51;11.07;;;4.20;;
9948;SDS011;5013;51.840;8.276;2023-09-19T02:43:17;12.00;;;4.17;;
9948;SDS011;5013;51.840;8.276;2023-09-19T02:45:44;10.43;;;3.80;;
9948;SDS011;5013;51.840;8.276;2023-09-19T02:48:11;15.13;;;4.07;;
9948;SDS011;5013;51.840;8.276;2023-09-19T02:50:37;13.97;;;4.37;;
9948;SDS011;5013;51.840;8.276;2023-09-19T02:53:04;13.33;;;3.67;;
9948;SDS011;5013;51.840;8.276;2023-09-19T02:55:30;9.53;;;3.70;;
9948;SDS011;5013;51.840;8.276;2023-09-19T02:57:56;11.83;;;4.00;;
9948;SDS011;5013;51.840;8.276;2023-09-19T03:00:22;8.80;;;3.20;;
9948;SDS011;5013;51.840;8.276;2023-09-19T03:02:49;16.63;;;3.60;;
9948;SDS011;5013;51.840;8.276;2023-09-19T03:05:16;18.77;;;3.57;;
9948;SDS011;5013;51.840;8.276;2023-09-19T03:07:43;9.93;;;3.53;;
9948;SDS011;5013;51.840;8.276;2023-09-19T03:10:11;11.83;;;3.20;;
9948;SDS011;5013;51.840;8.276;2023-09-19T03:12:36;16.00;;;3.80;;
9948;SDS011;5013;51.840;8.276;2023-09-19T03:15:05;11.43;;;3.10;;
9948;SDS011;5013;51.840;8.276;2023-09-19T03:17:33;16.80;;;4.00;;
9948;SDS011;5013;51.840;8.276;2023-09-19T03:19:59;14.73;;;4.20;;
9948;SDS011;5013;51.840;8.276;2023-09-19T03:22:25;12.00;;;4.03;;
9948;SDS011;5013;51.840;8.276;2023-09-19T03:24:52;15.23;;;3.60;;
9948;SDS011;5013;51.840;8.276;2023-09-19T03:27:18;20.27;;;3.83;;
9948;SDS011;5013;51.840;8.276;2023-09-19T03:29:44;10.03;;;3.53;;
9948;SDS011;5013;51.840;8.276;2023-09-19T03:32:09;14.50;;;3.50;;
9948;SDS011;5013;51.840;8.276;2023-09-19T03:34:36;11.30;;;3.50;;
9948;SDS011;5013;51.840;8.276;2023-09-19T03:37:07;15.07;;;3.87;;
9948;SDS011;5013;51.840;8.276;2023-09-19T03:39:32;14.33;;;3.67;;
9948;SDS011;5013;51.840;8.276;2023-09-19T03:41:58;12.97;;;3.23;;
9948;SDS011;5013;51.840;8.276;2023-09-19T03:44:23;15.13;;;3.87;;
9948;SDS011;5013;51.840;8.276;2023-09-19T03:46:49;11.20;;;3.23;;
9948;SDS011;5013;51.840;8.276;2023-09-19T03:49:15;9.40;;;3.33;;
9948;SDS011;5013;51.840;8.276;2023-09-19T03:51:40;12.10;;;3.60;;
9948;SDS011;5013;51.840;8.276;2023-09-19T03:54:06;11.63;;;3.40;;
9948;SDS011;5013;51.840;8.276;2023-09-19T03:56:32;11.57;;;3.30;;
9948;SDS011;5013;51.840;8.276;2023-09-19T03:58:58;9.63;;;3.17;;
9948;SDS011;5013;51.840;8.276;2023-09-19T04:01:24;11.37;;;3.47;;
9948;SDS011;5013;51.840;8.276;2023-09-19T04:03:49;14.70;;;3.80;;
9948;SDS011;5013;51.840;8.276;2023-09-19T04:06:16;14.77;;;4.17;;
9948;SDS011;5013;51.840;8.276;2023-09-19T04:08:42;15.30;;;3.77;;
9948;SDS011;5013;51.840;8.276;2023-09-19T04:11:09;17.33;;;3.77;;
9948;SDS011;5013;51.840;8.276;2023-09-19T04:13:35;13.93;;;3.17;;
9948;SDS011;5013;51.840;8.276;2023-09-19T04:16:01;8.20;;;2.97;;
9948;SDS011;5013;51.840;8.276;2023-09-19T04:18:29;10.03;;;3.57;;
9948;SDS011;5013;51.840;8.276;2023-09-19T04:20:57;15.17;;;3.60;;
9948;SDS011;5013;51.840;8.276;2023-09-19T04:23:23;10.27;;;3.17;;
9948;SDS011;5013;51.840;8.276;2023-09-19T04:25:48;14.10;;;3.70;;
9948;SDS011;5013;51.840;8.276;2023-09-19T04:28:15;13.40;;;3.80;;
9948;SDS011;5013;51.840;8.276;2023-09-19T04:30:41;16.97;;;3.57;;
9948;SDS011;5013;51.840;8.276;2023-09-19T04:33:06;12.27;;;4.07;;
9948;SDS011;5013;51.840;8.276;2023-09-19T04:35:33;12.73;;;3.10;;
9948;SDS011;5013;51.840;8.276;2023-09-19T04:37:59;13.17;;;3.63;;
9948;SDS011;5013;51.840;8.276;2023-09-19T04:40:25;14.43;;;3.60;;
9948;SDS011;5013;51.840;8.276;2023-09-19T04:42:54;18.87;;;3.70;;
9948;SDS011;5013;51.840;8.276;2023-09-19T04:45:27;18.53;;;3.70;;
9948;SDS011;5013;51.840;8.276;2023-09-19T04:47:53;10.47;;;3.27;;
9948;SDS011;5013;51.840;8.276;2023-09-19T04:50:19;8.10;;;3.10;;
9948;SDS011;5013;51.840;8.276;2023-09-19T04:52:46;11.93;;;3.37;;
9948;SDS011;5013;51.840;8.276;2023-09-19T04:55:16;14.90;;;3.77;;
9948;SDS011;5013;51.840;8.276;2023-09-19T04:57:44;9.37;;;3.13;;
9948;SDS011;5013;51.840;8.276;2023-09-19T05:00:11;18.47;;;3.77;;
9948;SDS011;5013;51.840;8.276;2023-09-19T05:02:39;12.13;;;3.77;;
9948;SDS011;5013;51.840;8.276;2023-09-19T05:05:08;12.20;;;3.30;;
9948;SDS011;5013;51.840;8.276;2023-09-19T05:07:39;13.37;;;3.57;;
9948;SDS011;5013;51.840;8.276;2023-09-19T05:10:06;13.17;;;3.33;;
9948;SDS011;5013;51.840;8.276;2023-09-19T05:12:34;13.27;;;3.20;;
9948;SDS011;5013;51.840;8.276;2023-09-19T05:15:00;13.63;;;3.40;;
9948;SDS011;5013;51.840;8.276;2023-09-19T05:17:27;10.07;;;3.60;;
9948;SDS011;5013;51.840;8.276;2023-09-19T05:19:53;17.13;;;4.07;;
9948;SDS011;5013;51.840;8.276;2023-09-19T05:22:18;11.77;;;3.03;;
9948;SDS011;5013;51.840;8.276;2023-09-19T05:24:44;14.83;;;3.77;;
9948;SDS011;5013;51.840;8.276;2023-09-19T05:27:12;13.07;;;3.60;;
9948;SDS011;5013;51.840;8.276;2023-09-19T05:29:38;11.47;;;3.13;;
9948;SDS011;5013;51.840;8.276;2023-09-19T05:32:03;18.23;;;4.40;;
9948;SDS011;5013;51.840;8.276;2023-09-19T05:34:30;10.03;;;3.23;;
9948;SDS011;5013;51.840;8.276;2023-09-19T05:36:56;8.77;;;3.07;;
9948;SDS011;5013;51.840;8.276;2023-09-19T05:39:21;9.63;;;3.30;;
9948;SDS011;5013;51.840;8.276;2023-09-19T05:41:48;12.70;;;3.90;;
9948;SDS011;5013;51.840;8.276;2023-09-19T05:44:13;11.17;;;3.80;;
9948;SDS011;5013;51.840;8.276;2023-09-19T05:46:41;15.03;;;3.83;;
9948;SDS011;5013;51.840;8.276;2023-09-19T05:49:07;11.30;;;3.00;;
9948;SDS011;5013;51.840;8.276;2023-09-19T05:51:33;11.33;;;3.50;;
9948;SDS011;5013;51.840;8.276;2023-09-19T05:54:00;10.03;;;3.10;;
9948;SDS011;5013;51.840;8.276;2023-09-19T05:56:26;12.30;;;3.10;;
9948;SDS011;5013;51.840;8.276;2023-09-19T05:58:52;14.63;;;3.93;;
9948;SDS011;5013;51.840;8.276;2023-09-19T06:01:18;18.93;;;3.90;;
9948;SDS011;5013;51.840;8.276;2023-09-19T06:03:44;13.67;;;3.30;;
9948;SDS011;5013;51.840;8.276;2023-09-19T06:06:09;15.67;;;3.70;;
9948;SDS011;5013;51.840;8.276;2023-09-19T06:08:35;12.80;;;3.57;;
9948;SDS011;5013;51.840;8.276;2023-09-19T06:11:00;10.40;;;2.90;;
9948;SDS011;5013;51.840;8.276;2023-09-19T06:13:29;16.93;;;3.53;;
9948;SDS011;5013;51.840;8.276;2023-09-19T06:15:55;11.93;;;3.43;;
9948;SDS011;5013;51.840;8.276;2023-09-19T06:18:24;11.33;;;3.50;;
9948;SDS011;5013;51.840;8.276;2023-09-19T06:20:51;8.97;;;3.60;;
9948;SDS011;5013;51.840;8.276;2023-09-19T06:23:17;14.70;;;3.90;;
9948;SDS011;5013;51.840;8.276;2023-09-19T06:25:43;10.37;;;2.73;;
9948;SDS011;5013;51.840;8.276;2023-09-19T06:28:09;17.07;;;3.60;;
9948;SDS011;5013;51.840;8.276;2023-09-19T06:30:37;9.73;;;3.57;;
9948;SDS011;5013;51.840;8.276;2023-09-19T06:33:06;14.13;;;3.57;;
9948;SDS011;5013;51.840;8.276;2023-09-19T06:35:32;6.77;;;2.47;;
9948;SDS011;5013;51.840;8.276;2023-09-19T06:38:01;9.83;;;3.10;;
9948;SDS011;5013;51.840;8.276;2023-09-19T06:40:28;19.90;;;3.40;;
9948;SDS011;5013;51.840;8.276;2023-09-19T06:42:56;9.83;;;2.60;;
9948;SDS011;5013;51.840;8.276;2023-09-19T06:45:22;12.70;;;3.00;;
9948;SDS011;5013;51.840;8.276;2023-09-19T06:47:51;11.47;;;3.07;;
9948;SDS011;5013;51.840;8.276;2023-09-19T06:50:17;15.73;;;3.63;;
9948;SDS011;5013;51.840;8.276;2023-09-19T06:52:44;10.47;;;3.40;;
9948;SDS011;5013;51.840;8.276;2023-09-19T06:55:11;13.07;;;3.30;;
9948;SDS011;5013;51.840;8.276;2023-09-19T06:57:38;14.77;;;3.20;;
9948;SDS011;5013;51.840;8.276;2023-09-19T07:00:05;10.07;;;2.90;;
9948;SDS011;5013;51.840;8.276;2023-09-19T07:02:40;17.73;;;3.60;;
9948;SDS011;5013;51.840;8.276;2023-09-19T07:05:29;14.50;;;3.13;;
9948;SDS011;5013;51.840;8.276;2023-09-19T07:07:56;15.80;;;3.33;;
9948;SDS011;5013;51.840;8.276;2023-09-19T07:10:25;11.10;;;3.40;;
9948;SDS011;5013;51.840;8.276;2023-09-19T07:12:58;12.37;;;3.10;;
9948;SDS011;5013;51.840;8.276;2023-09-19T07:15:28;12.27;;;3.33;;
9948;SDS011;5013;51.840;8.276;2023-09-19T07:17:56;12.73;;;3.50;;
9948;SDS011;5013;51.840;8.276;2023-09-19T07:20:22;15.53;;;3.63;;
9948;SDS011;5013;51.840;8.276;2023-09-19T07:22:51;15.33;;;3.60;;
9948;SDS011;5013;51.840;8.276;2023-09-19T07:25:16;12.37;;;2.97;;
9948;SDS011;5013;51.840;8.276;2023-09-19T07:27:42;11.57;;;3.37;;
9948;SDS011;5013;51.840;8.276;2023-09-19T07:30:09;11.60;;;3.33;;
9948;SDS011;5013;51.840;8.276;2023-09-19T07:32:36;15.73;;;3.77;;
9948;SDS011;5013;51.840;8.276;2023-09-19T07:35:03;10.10;;;3.60;;
9948;SDS011;5013;51.840;8.276;2023-09-19T07:37:30;13.60;;;3.30;;
9948;SDS011;5013;51.840;8.276;2023-09-19T07:39:58;9.40;;;3.00;;
9948;SDS011;5013;51.840;8.276;2023-09-19T07:42:32;12.83;;;3.20;;
9948;SDS011;5013;51.840;8.276;2023-09-19T07:45:00;10.90;;;3.37;;
9948;SDS011;5013;51.840;8.276;2023-09-19T07:47:26;14.07;;;3.50;;
9948;SDS011;5013;51.840;8.276;2023-09-19T07:49:52;11.53;;;2.93;;
9948;SDS011;5013;51.840;8.276;2023-09-19T07:52:18;14.63;;;3.63;;
9948;SDS011;5013;51.840;8.276;2023-09-19T07:54:44;12.73;;;3.47;;
9948;SDS011;5013;51.840;8.276;2023-09-19T07:57:10;13.40;;;3.33;;
9948;SDS011;5013;51.840;8.276;2023-09-19T07:59:36;8.47;;;3.50;;
9948;SDS011;5013;51.840;8.276;2023-09-19T08:02:03;6.87;;;3.60;;
9948;SDS011;5013;51.840;8.276;2023-09-19T08:04:30;9.03;;;3.20;;
9948;SDS011;5013;51.840;8.276;2023-09-19T08:06:58;11.17;;;3.60;;
9948;SDS011;5013;51.840;8.276;2023-09-19T08:09:28;19.50;;;3.50;;
9948;SDS011;5013;51.840;8.276;2023-09-19T08:11:58;8.07;;;3.27;;
9948;SDS011;5013;51.840;8.276;2023-09-19T08:14:24;14.27;;;3.30;;
9948;SDS011;5013;51.840;8.276;2023-09-19T08:16:51;14.57;;;3.83;;
9948;SDS011;5013;51.840;8.276;2023-09-19T08:19:16;9.77;;;3.40;;
9948;SDS011;5013;51.840;8.276;2023-09-19T08:21:42;10.80;;;3.27;;
9948;SDS011;5013;51.840;8.276;2023-09-19T08:24:12;13.87;;;3.40;;
9948;SDS011;5013;51.840;8.276;2023-09-19T08:26:39;10.17;;;3.37;;
9948;SDS011;5013;51.840;8.276;2023-09-19T08:29:04;9.27;;;3.50;;
9948;SDS011;5013;51.840;8.276;2023-09-19T08:31:32;7.77;;;3.00;;
9948;SDS011;5013;51.840;8.276;2023-09-19T08:33:58;11.90;;;3.60;;
9948;SDS011;5013;51.840;8.276;2023-09-19T08:36:24;14.63;;;4.03;;
9948;SDS011;5013;51.840;8.276;2023-09-19T08:38:50;8.20;;;3.63;;
9948;SDS011;5013;51.840;8.276;2023-09-19T08:41:16;8.67;;;2.93;;
9948;SDS011;5013;51.840;8.276;2023-09-19T08:43:42;12.80;;;3.83;;
9948;SDS011;5013;51.840;8.276;2023-09-19T08:46:11;12.30;;;3.60;;
9948;SDS011;5013;51.840;8.276;2023-09-19T08:49:05;9.37;;;3.40;;
9948;SDS011;5013;51.840;8.276;2023-09-19T08:51:37;20.53;;;4.27;;
9948;SDS011;5013;51.840;8.276;2023-09-19T08:54:09;14.20;;;3.70;;
9948;SDS011;5013;51.840;8.276;2023-09-19T08:56:44;15.07;;;4.20;;
9948;SDS011;5013;51.840;8.276;2023-09-19T08:59:12;18.37;;;3.67;;
9948;SDS011;5013;51.840;8.276;2023-09-19T09:01:39;17.73;;;4.27;;
9948;SDS011;5013;51.840;8.276;2023-09-19T09:04:08;17.20;;;4.67;;
9948;SDS011;5013;51.840;8.276;2023-09-19T09:06:37;15.87;;;3.67;;
9948;SDS011;5013;51.840;8.276;2023-09-19T09:09:05;23.57;;;4.33;;
9948;SDS011;5013;51.840;8.276;2023-09-19T09:11:32;11.80;;;3.13;;
9948;SDS011;5013;51.840;8.276;2023-09-19T09:13:58;15.87;;;4.00;;
9948;SDS011;5013;51.840;8.276;2023-09-19T09:16:24;13.83;;;4.00;;
9948;SDS011;5013;51.840;8.276;2023-09-19T09:18:51;13.93;;;3.70;;
9948;SDS011;5013;51.840;8.276;2023-09-19T09:21:17;11.67;;;3.70;;
9948;SDS011;5013;51.840;8.276;2023-09-19T09:23:43;9.80;;;3.30;;
9948;SDS011;5013;51.840;8.276;2023-09-19T09:26:09;13.10;;;3.57;;
9948;SDS011;5013;51.840;8.276;2023-09-19T09:28:35;8.33;;;3.10;;
9948;SDS011;5013;51.840;8.276;2023-09-19T09:31:04;14.53;;;3.57;;
9948;SDS011;5013;51.840;8.276;2023-09-19T09:33:34;10.43;;;3.80;;
9948;SDS011;5013;51.840;8.276;2023-09-19T09:36:02;12.57;;;3.80;;
9948;SDS011;5013;51.840;8.276;2023-09-19T09:38:44;14.77;;;3.33;;
9948;SDS011;5013;51.840;8.276;2023-09-19T09:41:11;18.50;;;3.60;;
9948;SDS011;5013;51.840;8.276;2023-09-19T09:43:40;10.67;;;3.60;;
9948;SDS011;5013;51.840;8.276;2023-09-19T09:48:45;16.13;;;3.73;;
9948;SDS011;5013;51.840;8.276;2023-09-19T09:51:32;13.87;;;3.67;;
9948;SDS011;5013;51.840;8.276;2023-09-19T09:54:11;17.53;;;4.13;;
9948;SDS011;5013;51.840;8.276;2023-09-19T10:04:58;9.87;;;3.00;;
9948;SDS011;5013;51.840;8.276;2023-09-19T10:07:44;16.77;;;3.70;;
9948;SDS011;5013;51.840;8.276;2023-09-19T10:10:28;14.70;;;3.40;;
9948;SDS011;5013;51.840;8.276;2023-09-19T10:12:54;10.07;;;3.17;;
9948;SDS011;5013;51.840;8.276;2023-09-19T10:15:27;10.77;;;3.30;;
9948;SDS011;5013;51.840;8.276;2023-09-19T10:17:57;12.70;;;3.27;;
9948;SDS011;5013;51.840;8.276;2023-09-19T10:20:26;11.27;;;3.53;;
9948;SDS011;5013;51.840;8.276;2023-09-19T10:23:00;12.10;;;3.20;;
9948;SDS011;5013;51.840;8.276;2023-09-19T10:25:28;13.37;;;3.33;;
9948;SDS011;5013;51.840;8.276;2023-09-19T10:27:55;9.67;;;3.57;;
9948;SDS011;5013;51.840;8.276;2023-09-19T10:30:25;11.17;;;3.60;;
9948;SDS011;5013;51.840;8.276;2023-09-19T10:33:00;10.97;;;3.33;;
9948;SDS011;5013;51.840;8.276;2023-09-19T10:35:27;11.90;;;3.90;;
9948;SDS011;5013;51.840;8.276;2023-09-19T10:37:57;14.87;;;3.67;;
9948;SDS011;5013;51.840;8.276;2023-09-19T10:40:26;11.93;;;3.50;;
9948;SDS011;5013;51.840;8.276;2023-09-19T10:43:05;12.77;;;3.80;;
9948;SDS011;5013;51.840;8.276;2023-09-19T10:45:32;13.83;;;3.53;;
9948;SDS011;5013;51.840;8.276;2023-09-19T10:48:03;11.90;;;2.97;;
9948;SDS011;5013;51.840;8.276;2023-09-19T10:50:31;13.33;;;3.60;;
9948;SDS011;5013;51.840;8.276;2023-09-19T10:53:02;10.03;;;3.53;;
9948;SDS011;5013;51.840;8.276;2023-09-19T10:55:33;9.77;;;3.30;;
9948;SDS011;5013;51.840;8.276;2023-09-19T10:58:00;11.03;;;3.27;;
9948;SDS011;5013;51.840;8.276;2023-09-19T11:00:28;13.77;;;4.13;;
9948;SDS011;5013;51.840;8.276;2023-09-19T11:03:32;12.23;;;3.30;;
9948;SDS011;5013;51.840;8.276;2023-09-19T11:06:08;8.80;;;3.40;;
9948;SDS011;5013;51.840;8.276;2023-09-19T11:14:13;12.40;;;3.50;;
9948;SDS011;5013;51.840;8.276;2023-09-19T11:16:39;6.90;;;2.77;;
9948;SDS011;5013;51.840;8.276;2023-09-19T11:19:05;11.53;;;3.70;;
9948;SDS011;5013;51.840;8.276;2023-09-19T11:24:46;8.30;;;3.27;;
9948;SDS011;5013;51.840;8.276;2023-09-19T11:26:49;6.93;;;3.20;;
9948;SDS011;5013;51.840;8.276;2023-09-19T11:29:29;5.40;;;3.23;;
9948;SDS011;5013;51.840;8.276;2023-09-19T11:31:56;10.80;;;3.37;;
9948;SDS011;5013;51.840;8.276;2023-09-19T11:34:43;7.33;;;3.30;;
9948;SDS011;5013;51.840;8.276;2023-09-19T11:40:05;8.47;;;3.23;;
9948;SDS011;5013;51.840;8.276;2023-09-19T11:48:05;11.07;;;3.47;;
9948;SDS011;5013;51.840;8.276;2023-09-19T11:50:32;14.10;;;3.47;;
9948;SDS011;5013;51.840;8.276;2023-09-19T11:53:01;10.57;;;3.63;;
9948;SDS011;5013;51.840;8.276;2023-09-19T11:55:28;8.17;;;3.07;;
9948;SDS011;5013;51.840;8.276;2023-09-19T11:57:57;11.27;;;3.10;;
9948;SDS011;5013;51.840;8.276;2023-09-19T12:00:24;11.37;;;3.37;;
9948;SDS011;5013;51.840;8.276;2023-09-19T12:02:52;8.20;;;3.43;;
9948;SDS011;5013;51.840;8.276;2023-09-19T12:05:29;13.63;;;3.60;;
9948;SDS011;5013;51.840;8.276;2023-09-19T12:07:56;7.90;;;3.00;;
9948;SDS011;5013;51.840;8.276;2023-09-19T12:10:21;10.10;;;3.50;;
9948;SDS011;5013;51.840;8.276;2023-09-19T12:12:48;12.10;;;3.57;;
9948;SDS011;5013;51.840;8.276;2023-09-19T12:15:14;10.87;;;3.83;;
9948;SDS011;5013;51.840;8.276;2023-09-19T12:17:47;9.50;;;3.40;;
9948;SDS011;5013;51.840;8.276;2023-09-19T12:20:13;8.03;;;3.20;;
9948;SDS011;5013;51.840;8.276;2023-09-19T12:22:40;10.37;;;3.50;;
9948;SDS011;5013;51.840;8.276;2023-09-19T12:25:08;7.37;;;3.00;;
9948;SDS011;5013;51.840;8.276;2023-09-19T12:27:42;6.20;;;3.30;;
9948;SDS011;5013;51.840;8.276;2023-09-19T12:30:18;15.90;;;3.93;;
9948;SDS011;5013;51.840;8.276;2023-09-19T12:32:46;6.90;;;2.77;;
9948;SDS011;5013;51.840;8.276;2023-09-19T12:35:32;9.67;;;3.30;;
9948;SDS011;5013;51.840;8.276;2023-09-19T12:38:01;8.40;;;3.33;;
9948;SDS011;5013;51.840;8.276;2023-09-19T12:40:28;9.40;;;3.10;;
9948;SDS011;5013;51.840;8.276;2023-09-19T12:42:58;7.33;;;2.83;;
9948;SDS011;5013;51.840;8.276;2023-09-19T12:45:25;6.63;;;2.90;;
9948;SDS011;5013;51.840;8.276;2023-09-19T12:51:01;8.93;;;3.00;;
9948;SDS011;5013;51.840;8.276;2023-09-19T12:53:42;11.00;;;3.20;;
9948;SDS011;5013;51.840;8.276;2023-09-19T12:56:10;7.37;;;3.33;;
9948;SDS011;5013;51.840;8.276;2023-09-19T13:01:16;6.20;;;2.70;;
9948;SDS011;5013;51.840;8.276;2023-09-19T13:03:42;8.90;;;2.60;;
9948;SDS011;5013;51.840;8.276;2023-09-19T13:06:07;6.40;;;2.60;;
9948;SDS011;5013;51.840;8.276;2023-09-19T13:08:35;9.10;;;2.80;;
9948;SDS011;5013;51.840;8.276;2023-09-19T13:16:14;5.80;;;2.50;;
9948;SDS011;5013;51.840;8.276;2023-09-19T13:18:45;11.23;;;2.90;;
9948;SDS011;5013;51.840;8.276;2023-09-19T13:23:54;4.53;;;2.63;;
9948;SDS011;5013;51.840;8.276;2023-09-19T13:26:26;9.33;;;2.83;;
9948;SDS011;5013;51.840;8.276;2023-09-19T13:28:53;5.70;;;2.80;;
9948;SDS011;5013;51.840;8.276;2023-09-19T13:31:19;4.70;;;2.33;;
9948;SDS011;5013;51.840;8.276;2023-09-19T13:33:45;8.77;;;2.73;;
9948;SDS011;5013;51.840;8.276;2023-09-19T13:36:12;9.93;;;2.73;;
9948;SDS011;5013;51.840;8.276;2023-09-19T13:38:41;6.47;;;2.53;;
9948;SDS011;5013;51.840;8.276;2023-09-19T13:41:11;5.87;;;2.67;;
9948;SDS011;5013;51.840;8.276;2023-09-19T13:43:37;6.63;;;2.60;;
9948;SDS011;5013;51.840;8.276;2023-09-19T13:46:03;6.77;;;2.73;;
9948;SDS011;5013;51.840;8.276;2023-09-19T13:48:30;6.47;;;2.93;;
9948;SDS011;5013;51.840;8.276;2023-09-19T13:50:56;6.93;;;2.70;;
9948;SDS011;5013;51.840;8.276;2023-09-19T13:53:22;7.13;;;2.43;;
9948;SDS011;5013;51.840;8.276;2023-09-19T13:55:48;7.23;;;2.70;;
9948;SDS011;5013;51.840;8.276;2023-09-19T13:58:14;5.37;;;2.43;;
9948;SDS011;5013;51.840;8.276;2023-09-19T14:00:40;5.90;;;2.70;;
9948;SDS011;5013;51.840;8.276;2023-09-19T14:03:05;5.23;;;2.47;;
9948;SDS011;5013;51.840;8.276;2023-09-19T14:05:31;4.43;;;2.30;;
9948;SDS011;5013;51.840;8.276;2023-09-19T14:07:57;6.53;;;2.70;;
9948;SDS011;5013;51.840;8.276;2023-09-19T14:10:24;7.33;;;2.80;;
9948;SDS011;5013;51.840;8.276;2023-09-19T14:12:52;2.83;;;2.50;;
9948;SDS011;5013;51.840;8.276;2023-09-19T14:15:18;6.67;;;3.03;;
9948;SDS011;5013;51.840;8.276;2023-09-19T14:17:43;7.17;;;2.50;;
9948;SDS011;5013;51.840;8.276;2023-09-19T14:20:12;5.50;;;2.30;;
9948;SDS011;5013;51.840;8.276;2023-09-19T14:22:37;9.77;;;2.73;;
9948;SDS011;5013;51.840;8.276;2023-09-19T14:25:04;5.23;;;2.27;;
9948;SDS011;5013;51.840;8.276;2023-09-19T14:27:31;4.53;;;2.40;;
9948;SDS011;5013;51.840;8.276;2023-09-19T14:29:56;7.47;;;2.57;;
9948;SDS011;5013;51.840;8.276;2023-09-19T14:32:22;9.80;;;2.80;;
9948;SDS011;5013;51.840;8.276;2023-09-19T14:34:48;6.00;;;2.87;;
9948;SDS011;5013;51.840;8.276;2023-09-19T14:37:14;6.80;;;3.10;;
9948;SDS011;5013;51.840;8.276;2023-09-19T14:39:41;6.17;;;2.70;;
9948;SDS011;5013;51.840;8.276;2023-09-19T14:42:09;7.23;;;2.87;;
9948;SDS011;5013;51.840;8.276;2023-09-19T14:44:35;6.57;;;2.90;;
9948;SDS011;5013;51.840;8.276;2023-09-19T14:47:02;6.30;;;2.53;;
9948;SDS011;5013;51.840;8.276;2023-09-19T14:49:32;3.90;;;2.40;;
9948;SDS011;5013;51.840;8.276;2023-09-19T14:51:58;5.43;;;2.20;;
9948;SDS011;5013;51.840;8.276;2023-09-19T14:54:24;9.13;;;2.80;;
9948;SDS011;5013;51.840;8.276;2023-09-19T14:56:50;5.33;;;2.60;;
9948;SDS011;5013;51.840;8.276;2023-09-19T14:59:21;6.93;;;2.67;;
9948;SDS011;5013;51.840;8.276;2023-09-19T15:01:46;6.10;;;2.50;;
9948;SDS011;5013;51.840;8.276;2023-09-19T15:04:15;4.30;;;2.57;;
9948;SDS011;5013;51.840;8.276;2023-09-19T15:06:40;6.97;;;3.20;;
9948;SDS011;5013;51.840;8.276;2023-09-19T15:09:06;9.87;;;4.60;;
9948;SDS011;5013;51.840;8.276;2023-09-19T15:11:33;8.20;;;4.13;;
9948;SDS011;5013;51.840;8.276;2023-09-19T15:13:59;4.60;;;3.17;;
9948;SDS011;5013;51.840;8.276;2023-09-19T15:16:25;7.27;;;3.93;;
9948;SDS011;5013;51.840;8.276;2023-09-19T15:18:52;10.43;;;3.73;;
9948;SDS011;5013;51.840;8.276;2023-09-19T15:21:17;11.20;;;6.57;;
9948;SDS011;5013;51.840;8.276;2023-09-19T15:23:43;7.87;;;3.50;;
9948;SDS011;5013;51.840;8.276;2023-09-19T15:26:12;5.60;;;2.00;;
9948;SDS011;5013;51.840;8.276;2023-09-19T15:28:39;4.80;;;2.60;;
9948;SDS011;5013;51.840;8.276;2023-09-19T15:31:06;7.70;;;3.93;;
9948;SDS011;5013;51.840;8.276;2023-09-19T15:33:34;5.97;;;1.97;;
9948;SDS011;5013;51.840;8.276;2023-09-19T15:36:07;3.43;;;1.87;;
9948;SDS011;5013;51.840;8.276;2023-09-19T15:41:24;6.33;;;2.17;;
9948;SDS011;5013;51.840;8.276;2023-09-19T15:43:51;5.80;;;2.03;;
9948;SDS011;5013;51.840;8.276;2023-09-19T15:46:17;3.57;;;2.00;;
9948;SDS011;5013;51.840;8.276;2023-09-19T15:48:44;4.33;;;2.20;;
9948;SDS011;5013;51.840;8.276;2023-09-19T15:51:10;4.13;;;1.77;;
9948;SDS011;5013;51.840;8.276;2023-09-19T15:53:43;5.63;;;2.97;;
9948;SDS011;5013;51.840;8.276;2023-09-19T15:56:12;8.33;;;3.00;;
9948;SDS011;5013;51.840;8.276;2023-09-19T15:58:39;7.17;;;3.13;;
9948;SDS011;5013;51.840;8.276;2023-09-19T16:01:15;10.50;;;2.33;;
9948;SDS011;5013;51.840;8.276;2023-09-19T16:03:47;3.73;;;1.90;;
9948;SDS011;5013;51.840;8.276;2023-09-19T16:06:19;4.97;;;1.77;;
9948;SDS011;5013;51.840;8.276;2023-09-19T16:08:48;4.27;;;1.63;;
9948;SDS011;5013;51.840;8.276;2023-09-19T16:11:16;4.73;;;1.57;;
9948;SDS011;5013;51.840;8.276;2023-09-19T16:13:43;9.83;;;1.67;;